sensor_id;sensor_type;location;lat;lon;timestamp;pressure;altitude;pressure_sealevel;temperature;humidity
77869;BME280;67231;59.144;37.934;2023-03-29T00:00:47;99976.53;;;3.12;79.43
77869;BME280;67231;59.144;37.934;2023-03-29T00:03:15;99966.88;;;3.13;79.87
77869;BME280;67231;59.144;37.934;2023-03-29T00:05:41;99961.75;;;3.11;79.54
77869;BME280;67231;59.144;37.934;2023-03-29T00:08:09;99958.91;;;3.14;79.37
77869;BME280;67231;59.144;37.934;2023-03-29T00:10:39;99956.28;;;3.14;79.34
77869;BME280;67231;59.144;37.934;2023-03-29T00:13:06;99953.66;;;3.14;79.67
77869;BME280;67231;59.144;37.934;2023-03-29T00:15:32;99959.88;;;3.13;79.28
77869;BME280;67231;59.144;37.934;2023-03-29T00:17:58;99953.03;;;3.10;79.27
77869;BME280;67231;59.144;37.934;2023-03-29T00:20:25;99958.41;;;3.09;79.33
77869;BME280;67231;59.144;37.934;2023-03-29T00:22:52;99948.75;;;3.09;79.43
77869;BME280;67231;59.144;37.934;2023-03-29T00:25:18;99948.84;;;3.08;79.41
77869;BME280;67231;59.144;37.934;2023-03-29T00:27:44;99951.06;;;3.01;79.41
77869;BME280;67231;59.144;37.934;2023-03-29T00:30:11;99947.19;;;2.94;79.45
77869;BME280;67231;59.144;37.934;2023-03-29T00:32:38;99951.06;;;2.88;79.59
77869;BME280;67231;59.144;37.934;2023-03-29T00:35:05;99949.59;;;2.84;79.93
77869;BME280;67231;59.144;37.934;2023-03-29T00:37:32;99949.91;;;2.80;79.58
77869;BME280;67231;59.144;37.934;2023-03-29T00:39:59;99943.28;;;2.74;79.64
77869;BME280;67231;59.144;37.934;2023-03-29T00:42:25;99947.09;;;2.70;80.05
77869;BME280;67231;59.144;37.934;2023-03-29T00:47:28;99952.09;;;2.60;80.13
77869;BME280;67231;59.144;37.934;2023-03-29T00:49:59;99945.06;;;2.61;80.20
77869;BME280;67231;59.144;37.934;2023-03-29T00:52:30;99953.56;;;2.64;80.06
77869;BME280;67231;59.144;37.934;2023-03-29T00:55:01;99942.47;;;2.73;80.09
77869;BME280;67231;59.144;37.934;2023-03-29T00:57:29;99940.16;;;2.82;79.91
77869;BME280;67231;59.144;37.934;2023-03-29T00:59:56;99940.56;;;2.88;79.43
77869;BME280;67231;59.144;37.934;2023-03-29T01:02:27;99934.41;;;2.89;79.65
77869;BME280;67231;59.144;37.934;2023-03-29T01:04:58;99946.88;;;2.86;79.42
77869;BME280;67231;59.144;37.934;2023-03-29T01:10:08;99934.41;;;2.77;79.81
77869;BME280;67231;59.144;37.934;2023-03-29T01:12:40;99931.16;;;2.73;79.66
77869;BME280;67231;59.144;37.934;2023-03-29T01:15:13;99929.56;;;2.70;79.87
77869;BME280;67231;59.144;37.934;2023-03-29T01:17:43;99937.53;;;2.69;79.60
77869;BME280;67231;59.144;37.934;2023-03-29T01:23:53;99935.13;;;2.66;79.90
77869;BME280;67231;59.144;37.934;2023-03-29T01:29:27;99931.78;;;2.64;79.60
77869;BME280;67231;59.144;37.934;2023-03-29T01:32:03;99929.47;;;2.59;80.00
77869;BME280;67231;59.144;37.934;2023-03-29T01:34:50;99924.94;;;2.61;79.98
77869;BME280;67231;59.144;37.934;2023-03-29T01:37:23;99939.72;;;2.62;79.77
77869;BME280;67231;59.144;37.934;2023-03-29T01:39:52;99920.34;;;2.65;79.96
77869;BME280;67231;59.144;37.934;2023-03-29T01:42:43;99918.69;;;2.64;79.58
77869;BME280;67231;59.144;37.934;2023-03-29T01:45:26;99917.94;;;2.62;79.62
77869;BME280;67231;59.144;37.934;2023-03-29T01:50:51;99918.25;;;2.57;79.71
77869;BME280;67231;59.144;37.934;2023-03-29T01:53:27;99921.19;;;2.52;79.86
77869;BME280;67231;59.144;37.934;2023-03-29T01:55:58;99918.56;;;2.52;79.98
77869;BME280;67231;59.144;37.934;2023-03-29T01:58:30;99917.59;;;2.53;79.90
77869;BME280;67231;59.144;37.934;2023-03-29T02:01:00;99919.38;;;2.53;79.94
77869;BME280;67231;59.144;37.934;2023-03-29T02:03:31;99915.09;;;2.52;80.19
77869;BME280;67231;59.144;37.934;2023-03-29T02:05:59;99915.41;;;2.47;80.11
77869;BME280;67231;59.144;37.934;2023-03-29T02:08:27;99913.00;;;2.44;79.86
77869;BME280;67231;59.144;37.934;2023-03-29T02:10:56;99907.75;;;2.44;80.05
77869;BME280;67231;59.144;37.934;2023-03-29T02:13:22;99911.31;;;2.43;79.68
77869;BME280;67231;59.144;37.934;2023-03-29T02:15:48;99903.47;;;2.43;79.91
77869;BME280;67231;59.144;37.934;2023-03-29T02:18:15;99899.91;;;2.44;79.90
77869;BME280;67231;59.144;37.934;2023-03-29T02:20:45;99899.16;;;2.42;79.93
77869;BME280;67231;59.144;37.934;2023-03-29T02:23:24;99900.13;;;2.41;79.99
77869;BME280;67231;59.144;37.934;2023-03-29T02:25:52;99900.94;;;2.42;80.06
77869;BME280;67231;59.144;37.934;2023-03-29T02:28:21;99896.53;;;2.42;79.79
77869;BME280;67231;59.144;37.934;2023-03-29T02:31:04;99894.00;;;2.41;79.88
77869;BME280;67231;59.144;37.934;2023-03-29T02:36:42;99887.03;;;2.41;80.07
77869;BME280;67231;59.144;37.934;2023-03-29T02:39:11;99890.56;;;2.40;79.84
77869;BME280;67231;59.144;37.934;2023-03-29T02:41:42;99894.00;;;2.41;80.21
77869;BME280;67231;59.144;37.934;2023-03-29T02:44:12;99890.47;;;2.42;80.00
77869;BME280;67231;59.144;37.934;2023-03-29T02:46:40;99886.81;;;2.44;80.03
77869;BME280;67231;59.144;37.934;2023-03-29T02:49:09;99888.16;;;2.50;79.94
77869;BME280;67231;59.144;37.934;2023-03-29T02:51:36;99893.94;;;2.55;79.64
77869;BME280;67231;59.144;37.934;2023-03-29T02:54:14;99871.00;;;2.59;79.61
77869;BME280;67231;59.144;37.934;2023-03-29T02:56:45;99884.81;;;2.61;79.58
77869;BME280;67231;59.144;37.934;2023-03-29T02:59:12;99876.03;;;2.62;79.23
77869;BME280;67231;59.144;37.934;2023-03-29T03:01:39;99882.41;;;2.58;78.72
77869;BME280;67231;59.144;37.934;2023-03-29T03:04:08;99875.59;;;2.55;79.66
77869;BME280;67231;59.144;37.934;2023-03-29T03:06:36;99875.47;;;2.57;79.55
77869;BME280;67231;59.144;37.934;2023-03-29T03:09:03;99878.09;;;2.57;79.53
77869;BME280;67231;59.144;37.934;2023-03-29T03:11:33;99884.00;;;2.60;79.19
77869;BME280;67231;59.144;37.934;2023-03-29T03:13:59;99884.63;;;2.64;78.92
77869;BME280;67231;59.144;37.934;2023-03-29T03:16:26;99893.94;;;2.68;79.12
77869;BME280;67231;59.144;37.934;2023-03-29T03:18:52;99881.38;;;2.73;79.12
77869;BME280;67231;59.144;37.934;2023-03-29T03:21:20;99887.13;;;2.78;78.67
77869;BME280;67231;59.144;37.934;2023-03-29T03:23:47;99883.53;;;2.79;78.77
77869;BME280;67231;59.144;37.934;2023-03-29T03:26:14;99877.28;;;2.82;78.83
77869;BME280;67231;59.144;37.934;2023-03-29T03:28:42;99879.78;;;2.83;78.76
77869;BME280;67231;59.144;37.934;2023-03-29T03:31:20;99877.88;;;2.85;78.32
77869;BME280;67231;59.144;37.934;2023-03-29T03:34:04;99870.69;;;2.89;78.44
77869;BME280;67231;59.144;37.934;2023-03-29T03:36:36;99867.00;;;2.91;78.47
77869;BME280;67231;59.144;37.934;2023-03-29T03:39:03;99878.09;;;2.95;78.20
77869;BME280;67231;59.144;37.934;2023-03-29T03:41:33;99879.34;;;3.02;78.19
77869;BME280;67231;59.144;37.934;2023-03-29T03:43:59;99871.16;;;3.07;77.81
77869;BME280;67231;59.144;37.934;2023-03-29T03:46:26;99866.44;;;3.12;77.61
77869;BME280;67231;59.144;37.934;2023-03-29T03:48:52;99863.28;;;3.20;77.85
77869;BME280;67231;59.144;37.934;2023-03-29T03:51:24;99868.91;;;3.26;77.49
77869;BME280;67231;59.144;37.934;2023-03-29T03:53:50;99866.06;;;3.30;77.17
77869;BME280;67231;59.144;37.934;2023-03-29T03:56:34;99867.00;;;3.28;77.24
77869;BME280;67231;59.144;37.934;2023-03-29T03:59:04;99865.25;;;3.29;76.80
77869;BME280;67231;59.144;37.934;2023-03-29T04:01:37;99862.72;;;3.27;76.67
77869;BME280;67231;59.144;37.934;2023-03-29T04:04:18;99874.88;;;3.28;76.74
77869;BME280;67231;59.144;37.934;2023-03-29T04:07:07;99875.50;;;3.32;76.32
77869;BME280;67231;59.144;37.934;2023-03-29T04:09:53;99862.50;;;3.31;76.46
77869;BME280;67231;59.144;37.934;2023-03-29T04:12:34;99858.09;;;3.31;76.62
77869;BME280;67231;59.144;37.934;2023-03-29T04:15:01;99864.16;;;3.32;76.35
77869;BME280;67231;59.144;37.934;2023-03-29T04:17:30;99864.91;;;3.34;75.92
77869;BME280;67231;59.144;37.934;2023-03-29T04:19:58;99865.66;;;3.36;76.07
77869;BME280;67231;59.144;37.934;2023-03-29T04:22:29;99870.66;;;3.39;76.35
77869;BME280;67231;59.144;37.934;2023-03-29T04:24:55;99863.53;;;3.41;76.29
77869;BME280;67231;59.144;37.934;2023-03-29T04:27:40;99868.56;;;3.44;75.67
77869;BME280;67231;59.144;37.934;2023-03-29T04:30:19;99879.75;;;3.46;75.98
77869;BME280;67231;59.144;37.934;2023-03-29T04:33:10;99867.16;;;3.51;75.25
77869;BME280;67231;59.144;37.934;2023-03-29T04:35:39;99864.81;;;3.59;75.25
77869;BME280;67231;59.144;37.934;2023-03-29T04:38:10;99861.13;;;3.62;75.14
77869;BME280;67231;59.144;37.934;2023-03-29T04:40:37;99863.66;;;3.63;75.29
77869;BME280;67231;59.144;37.934;2023-03-29T04:43:30;99864.69;;;3.61;75.04
77869;BME280;67231;59.144;37.934;2023-03-29T04:46:19;99859.13;;;3.65;74.68
77869;BME280;67231;59.144;37.934;2023-03-29T04:49:03;99851.25;;;3.65;74.30
77869;BME280;67231;59.144;37.934;2023-03-29T04:51:37;99849.09;;;3.71;74.25
77869;BME280;67231;59.144;37.934;2023-03-29T04:54:04;99856.03;;;3.72;74.25
77869;BME280;67231;59.144;37.934;2023-03-29T04:56:42;99850.81;;;3.72;74.44
77869;BME280;67231;59.144;37.934;2023-03-29T04:59:29;99847.00;;;3.76;74.09
77869;BME280;67231;59.144;37.934;2023-03-29T05:01:55;99848.88;;;3.74;73.88
77869;BME280;67231;59.144;37.934;2023-03-29T05:04:21;99848.88;;;3.74;73.45
77869;BME280;67231;59.144;37.934;2023-03-29T05:07:00;99851.19;;;3.78;73.74
77869;BME280;67231;59.144;37.934;2023-03-29T05:09:27;99841.16;;;3.83;73.25
77869;BME280;67231;59.144;37.934;2023-03-29T05:11:54;99849.56;;;3.89;73.01
77869;BME280;67231;59.144;37.934;2023-03-29T05:14:22;99850.16;;;3.92;72.64
77869;BME280;67231;59.144;37.934;2023-03-29T05:16:48;99844.91;;;3.92;72.57
77869;BME280;67231;59.144;37.934;2023-03-29T05:19:15;99842.06;;;3.95;73.12
77869;BME280;67231;59.144;37.934;2023-03-29T05:21:45;99845.63;;;3.94;72.91
77869;BME280;67231;59.144;37.934;2023-03-29T05:24:16;99858.03;;;3.92;72.51
77869;BME280;67231;59.144;37.934;2023-03-29T05:26:55;99847.31;;;3.95;72.70
77869;BME280;67231;59.144;37.934;2023-03-29T05:29:22;99854.00;;;3.99;72.09
77869;BME280;67231;59.144;37.934;2023-03-29T05:31:56;99847.25;;;4.08;71.72
77869;BME280;67231;59.144;37.934;2023-03-29T05:34:22;99854.31;;;4.19;71.71
77869;BME280;67231;59.144;37.934;2023-03-29T05:36:52;99851.44;;;4.22;72.03
77869;BME280;67231;59.144;37.934;2023-03-29T05:39:19;99857.91;;;4.29;71.93
77869;BME280;67231;59.144;37.934;2023-03-29T05:41:46;99847.66;;;4.37;70.80
77869;BME280;67231;59.144;37.934;2023-03-29T05:44:39;99845.53;;;4.43;70.40
77869;BME280;67231;59.144;37.934;2023-03-29T05:47:13;99860.34;;;4.55;70.06
77869;BME280;67231;59.144;37.934;2023-03-29T05:49:39;99844.47;;;4.68;69.62
77869;BME280;67231;59.144;37.934;2023-03-29T05:52:10;99852.38;;;4.79;69.71
77869;BME280;67231;59.144;37.934;2023-03-29T05:54:38;99855.56;;;5.05;69.31
77869;BME280;67231;59.144;37.934;2023-03-29T05:57:05;99849.56;;;5.26;68.36
77869;BME280;67231;59.144;37.934;2023-03-29T05:59:37;99855.28;;;5.42;68.70
77869;BME280;67231;59.144;37.934;2023-03-29T06:02:03;99852.66;;;6.18;66.73
77869;BME280;67231;59.144;37.934;2023-03-29T06:04:30;99848.47;;;7.49;64.77
77869;BME280;67231;59.144;37.934;2023-03-29T06:07:18;99837.25;;;8.15;62.82
77869;BME280;67231;59.144;37.934;2023-03-29T06:09:58;99836.81;;;7.61;62.89
77869;BME280;67231;59.144;37.934;2023-03-29T06:12:24;99837.31;;;7.26;64.39
77869;BME280;67231;59.144;37.934;2023-03-29T06:14:57;99830.13;;;7.57;63.08
77869;BME280;67231;59.144;37.934;2023-03-29T06:17:49;99844.47;;;8.80;61.02
77869;BME280;67231;59.144;37.934;2023-03-29T06:20:16;99853.56;;;9.05;60.10
77869;BME280;67231;59.144;37.934;2023-03-29T06:22:48;99856.41;;;9.22;59.26
77869;BME280;67231;59.144;37.934;2023-03-29T06:25:14;99847.88;;;9.28;58.40
77869;BME280;67231;59.144;37.934;2023-03-29T06:27:45;99846.19;;;9.73;57.80
77869;BME280;67231;59.144;37.934;2023-03-29T06:30:16;99847.22;;;9.98;56.66
77869;BME280;67231;59.144;37.934;2023-03-29T06:32:47;99859.59;;;9.25;56.94
77869;BME280;67231;59.144;37.934;2023-03-29T06:35:46;99842.66;;;8.43;57.93
77869;BME280;67231;59.144;37.934;2023-03-29T06:38:15;99844.59;;;8.02;58.97
77869;BME280;67231;59.144;37.934;2023-03-29T06:41:04;99838.75;;;8.18;58.39
77869;BME280;67231;59.144;37.934;2023-03-29T06:43:54;99844.81;;;8.95;56.65
77869;BME280;67231;59.144;37.934;2023-03-29T06:46:23;99831.34;;;9.16;55.68
77869;BME280;67231;59.144;37.934;2023-03-29T06:48:55;99829.28;;;8.82;56.92
77869;BME280;67231;59.144;37.934;2023-03-29T06:51:22;99825.78;;;8.91;56.56
77869;BME280;67231;59.144;37.934;2023-03-29T06:53:49;99830.97;;;9.57;55.72
77869;BME280;67231;59.144;37.934;2023-03-29T06:56:15;99830.78;;;9.40;56.39
77869;BME280;67231;59.144;37.934;2023-03-29T06:58:45;99827.19;;;9.14;56.40
77869;BME280;67231;59.144;37.934;2023-03-29T07:01:41;99842.94;;;9.15;55.71
77869;BME280;67231;59.144;37.934;2023-03-29T07:04:30;99849.88;;;9.16;55.72
77869;BME280;67231;59.144;37.934;2023-03-29T07:07:29;99845.28;;;9.64;54.76
77869;BME280;67231;59.144;37.934;2023-03-29T07:10:30;99843.00;;;10.05;52.40
77869;BME280;67231;59.144;37.934;2023-03-29T07:13:18;99839.00;;;10.27;53.22
77869;BME280;67231;59.144;37.934;2023-03-29T07:15:44;99838.44;;;10.94;52.53
77869;BME280;67231;59.144;37.934;2023-03-29T07:18:17;99844.94;;;11.59;50.79
77869;BME280;67231;59.144;37.934;2023-03-29T07:20:43;99826.94;;;11.95;50.87
77869;BME280;67231;59.144;37.934;2023-03-29T07:23:10;99840.91;;;12.22;50.21
77869;BME280;67231;59.144;37.934;2023-03-29T07:25:38;99831.25;;;11.96;50.08
77869;BME280;67231;59.144;37.934;2023-03-29T07:28:06;99821.56;;;11.87;50.43
77869;BME280;67231;59.144;37.934;2023-03-29T07:30:33;99825.72;;;11.73;50.14
77869;BME280;67231;59.144;37.934;2023-03-29T07:33:20;99821.06;;;11.67;50.18
77869;BME280;67231;59.144;37.934;2023-03-29T07:35:55;99819.28;;;11.17;49.19
77869;BME280;67231;59.144;37.934;2023-03-29T07:38:22;99833.19;;;10.24;51.24
77869;BME280;67231;59.144;37.934;2023-03-29T07:40:55;99837.53;;;9.53;52.32
77869;BME280;67231;59.144;37.934;2023-03-29T07:43:44;99835.59;;;8.71;53.77
77869;BME280;67231;59.144;37.934;2023-03-29T07:46:12;99832.25;;;8.12;54.25
77869;BME280;67231;59.144;37.934;2023-03-29T07:48:39;99831.41;;;7.73;54.99
77869;BME280;67231;59.144;37.934;2023-03-29T07:51:07;99838.50;;;7.62;55.93
77869;BME280;67231;59.144;37.934;2023-03-29T07:53:56;99834.31;;;7.79;55.61
77869;BME280;67231;59.144;37.934;2023-03-29T07:56:40;99831.97;;;8.15;55.30
77869;BME280;67231;59.144;37.934;2023-03-29T07:59:19;99845.41;;;8.51;55.08
77869;BME280;67231;59.144;37.934;2023-03-29T08:01:52;99832.25;;;8.69;54.54
77869;BME280;67231;59.144;37.934;2023-03-29T08:04:40;99838.06;;;9.38;53.81
77869;BME280;67231;59.144;37.934;2023-03-29T08:07:17;99838.19;;;9.19;54.15
77869;BME280;67231;59.144;37.934;2023-03-29T08:09:52;99839.16;;;8.90;54.21
77869;BME280;67231;59.144;37.934;2023-03-29T08:12:22;99841.28;;;8.77;54.59
77869;BME280;67231;59.144;37.934;2023-03-29T08:14:49;99840.81;;;8.91;54.24
77869;BME280;67231;59.144;37.934;2023-03-29T08:17:24;99836.88;;;8.95;53.85
77869;BME280;67231;59.144;37.934;2023-03-29T08:19:51;99821.28;;;8.64;54.31
77869;BME280;67231;59.144;37.934;2023-03-29T08:22:20;99836.78;;;8.49;54.52
77869;BME280;67231;59.144;37.934;2023-03-29T08:25:06;99845.44;;;8.22;54.45
77869;BME280;67231;59.144;37.934;2023-03-29T08:27:38;99838.91;;;8.07;55.04
77869;BME280;67231;59.144;37.934;2023-03-29T08:30:11;99830.31;;;7.95;55.39
77869;BME280;67231;59.144;37.934;2023-03-29T08:32:40;99835.19;;;7.90;55.63
77869;BME280;67231;59.144;37.934;2023-03-29T08:35:08;99840.72;;;7.77;55.63
77869;BME280;67231;59.144;37.934;2023-03-29T08:37:44;99834.31;;;7.70;55.89
77869;BME280;67231;59.144;37.934;2023-03-29T08:40:27;99855.03;;;7.74;55.51
77869;BME280;67231;59.144;37.934;2023-03-29T08:43:47;99837.38;;;8.14;54.91
77869;BME280;67231;59.144;37.934;2023-03-29T08:49:26;99843.00;;;8.58;53.55
77869;BME280;67231;59.144;37.934;2023-03-29T08:51:57;99852.78;;;8.48;54.16
77869;BME280;67231;59.144;37.934;2023-03-29T08:54:31;99840.59;;;8.74;54.02
77869;BME280;67231;59.144;37.934;2023-03-29T08:57:23;99847.09;;;8.90;53.79
77869;BME280;67231;59.144;37.934;2023-03-29T08:59:58;99838.56;;;8.96;53.16
77869;BME280;67231;59.144;37.934;2023-03-29T09:02:31;99845.19;;;8.72;53.70
77869;BME280;67231;59.144;37.934;2023-03-29T09:05:40;99853.25;;;8.81;53.70
77869;BME280;67231;59.144;37.934;2023-03-29T09:08:16;99859.81;;;8.77;53.38
77869;BME280;67231;59.144;37.934;2023-03-29T09:19:54;99864.31;;;8.56;53.82
77869;BME280;67231;59.144;37.934;2023-03-29T09:30:42;99840.25;;;8.40;54.11
77869;BME280;67231;59.144;37.934;2023-03-29T09:33:40;99843.50;;;8.05;54.44
77869;BME280;67231;59.144;37.934;2023-03-29T09:36:22;99858.22;;;7.97;54.94
77869;BME280;67231;59.144;37.934;2023-03-29T09:38:51;99844.63;;;7.82;55.40
77869;BME280;67231;59.144;37.934;2023-03-29T09:41:26;99832.50;;;7.70;55.79
77869;BME280;67231;59.144;37.934;2023-03-29T09:44:01;99831.41;;;7.73;55.73
77869;BME280;67231;59.144;37.934;2023-03-29T09:46:42;99853.22;;;7.94;54.83
77869;BME280;67231;59.144;37.934;2023-03-29T09:49:13;99833.75;;;8.05;55.01
77869;BME280;67231;59.144;37.934;2023-03-29T09:51:43;99828.75;;;8.12;54.81
77869;BME280;67231;59.144;37.934;2023-03-29T09:54:11;99824.84;;;8.26;55.07
77869;BME280;67231;59.144;37.934;2023-03-29T09:57:00;99823.72;;;8.28;54.84
77869;BME280;67231;59.144;37.934;2023-03-29T09:59:26;99835.00;;;8.30;54.51
77869;BME280;67231;59.144;37.934;2023-03-29T10:02:04;99836.50;;;8.33;54.24
77869;BME280;67231;59.144;37.934;2023-03-29T10:04:31;99844.03;;;8.18;54.19
77869;BME280;67231;59.144;37.934;2023-03-29T10:06:59;99836.00;;;8.00;54.83
77869;BME280;67231;59.144;37.934;2023-03-29T10:09:28;99830.44;;;7.93;55.14
77869;BME280;67231;59.144;37.934;2023-03-29T10:12:05;99821.97;;;7.99;55.39
77869;BME280;67231;59.144;37.934;2023-03-29T10:14:37;99833.06;;;8.13;54.82
77869;BME280;67231;59.144;37.934;2023-03-29T10:17:15;99833.06;;;8.13;55.10
77869;BME280;67231;59.144;37.934;2023-03-29T10:19:56;99833.50;;;7.98;55.63
77869;BME280;67231;59.144;37.934;2023-03-29T10:22:25;99835.31;;;7.88;55.79
77869;BME280;67231;59.144;37.934;2023-03-29T10:24:53;99823.47;;;7.92;55.20
77869;BME280;67231;59.144;37.934;2023-03-29T10:27:30;99835.56;;;8.14;55.10
77869;BME280;67231;59.144;37.934;2023-03-29T10:30:07;99830.13;;;8.26;54.71
77869;BME280;67231;59.144;37.934;2023-03-29T10:32:37;99815.09;;;8.26;54.69
77869;BME280;67231;59.144;37.934;2023-03-29T10:37:41;99828.31;;;8.26;54.97
77869;BME280;67231;59.144;37.934;2023-03-29T10:40:18;99827.31;;;8.47;54.43
77869;BME280;67231;59.144;37.934;2023-03-29T10:42:47;99811.03;;;8.51;54.09
77869;BME280;67231;59.144;37.934;2023-03-29T10:45:28;99821.19;;;8.56;54.21
77869;BME280;67231;59.144;37.934;2023-03-29T10:47:56;99818.53;;;8.56;53.93
77869;BME280;67231;59.144;37.934;2023-03-29T10:50:23;99814.78;;;8.49;54.02
77869;BME280;67231;59.144;37.934;2023-03-29T10:52:50;99808.53;;;8.40;54.29
77869;BME280;67231;59.144;37.934;2023-03-29T10:55:17;99815.09;;;8.26;54.41
77869;BME280;67231;59.144;37.934;2023-03-29T11:00:56;99826.94;;;8.22;54.89
77869;BME280;67231;59.144;37.934;2023-03-29T11:08:57;99812.47;;;8.07;54.56
77869;BME280;67231;59.144;37.934;2023-03-29T11:11:50;99803.03;;;7.94;54.93
77869;BME280;67231;59.144;37.934;2023-03-29T11:14:39;99798.47;;;7.87;55.28
77869;BME280;67231;59.144;37.934;2023-03-29T11:22:51;99790.09;;;7.91;55.45
77869;BME280;67231;59.144;37.934;2023-03-29T11:31:01;99790.34;;;8.17;55.12
77869;BME280;67231;59.144;37.934;2023-03-29T11:42:37;99770.88;;;8.28;55.00
77869;BME280;67231;59.144;37.934;2023-03-29T11:45:05;99772.50;;;8.29;55.24
77869;BME280;67231;59.144;37.934;2023-03-29T11:47:38;99772.47;;;8.39;54.70
77869;BME280;67231;59.144;37.934;2023-03-29T11:55:21;99764.97;;;8.54;54.26
77869;BME280;67231;59.144;37.934;2023-03-29T11:58:00;99766.66;;;8.45;54.33
77869;BME280;67231;59.144;37.934;2023-03-29T12:00:36;99756.66;;;8.29;54.66
77869;BME280;67231;59.144;37.934;2023-03-29T12:03:12;99768.78;;;8.22;54.63
77869;BME280;67231;59.144;37.934;2023-03-29T12:05:49;99774.91;;;8.13;55.16
77869;BME280;67231;59.144;37.934;2023-03-29T12:08:30;99760.16;;;8.10;54.94
77869;BME280;67231;59.144;37.934;2023-03-29T12:16:50;99739.75;;;8.12;55.23
77869;BME280;67231;59.144;37.934;2023-03-29T12:21:47;99730.09;;;8.21;55.15
77869;BME280;67231;59.144;37.934;2023-03-29T12:24:19;99738.56;;;8.25;55.04
77869;BME280;67231;59.144;37.934;2023-03-29T12:27:38;99714.38;;;8.19;55.32
77869;BME280;67231;59.144;37.934;2023-03-29T12:39:02;99706.50;;;8.10;55.63
77869;BME280;67231;59.144;37.934;2023-03-29T12:41:47;99703.84;;;8.10;55.95
77869;BME280;67231;59.144;37.934;2023-03-29T12:44:26;99699.63;;;8.17;55.66
77869;BME280;67231;59.144;37.934;2023-03-29T12:47:00;99693.00;;;8.13;55.52
77869;BME280;67231;59.144;37.934;2023-03-29T12:49:31;99693.00;;;8.13;55.48
77869;BME280;67231;59.144;37.934;2023-03-29T12:51:58;99693.28;;;8.10;55.43
77869;BME280;67231;59.144;37.934;2023-03-29T12:54:30;99690.63;;;8.10;55.52
77869;BME280;67231;59.144;37.934;2023-03-29T12:57:00;99680.75;;;8.12;55.54
77869;BME280;67231;59.144;37.934;2023-03-29T12:59:37;99688.69;;;8.12;55.54
77869;BME280;67231;59.144;37.934;2023-03-29T13:14:45;99652.81;;;8.09;55.60
77869;BME280;67231;59.144;37.934;2023-03-29T13:17:51;99675.47;;;8.12;55.54
77869;BME280;67231;59.144;37.934;2023-03-29T13:20:45;99664.06;;;8.11;55.68
77869;BME280;67231;59.144;37.934;2023-03-29T13:31:05;99645.47;;;8.03;55.55
77869;BME280;67231;59.144;37.934;2023-03-29T13:37:21;99635.75;;;7.94;55.51
77869;BME280;67231;59.144;37.934;2023-03-29T13:39:51;99639.84;;;7.88;55.56
77869;BME280;67231;59.144;37.934;2023-03-29T13:45:24;99630.88;;;7.61;56.42
77869;BME280;67231;59.144;37.934;2023-03-29T13:53:51;99645.06;;;7.41;56.31
77869;BME280;67231;59.144;37.934;2023-03-29T13:56:24;99634.78;;;7.38;56.85
77869;BME280;67231;59.144;37.934;2023-03-29T13:58:54;99636.75;;;7.36;56.68
77869;BME280;67231;59.144;37.934;2023-03-29T14:01:38;99639.25;;;7.37;56.39
77869;BME280;67231;59.144;37.934;2023-03-29T14:04:16;99640.06;;;7.38;57.00
77869;BME280;67231;59.144;37.934;2023-03-29T14:06:50;99625.38;;;7.35;56.77
77869;BME280;67231;59.144;37.934;2023-03-29T14:09:21;99635.34;;;7.32;56.84
77869;BME280;67231;59.144;37.934;2023-03-29T14:11:48;99638.00;;;7.32;56.83
77869;BME280;67231;59.144;37.934;2023-03-29T14:14:15;99625.06;;;7.28;56.88
77869;BME280;67231;59.144;37.934;2023-03-29T14:16:42;99621.06;;;7.24;56.58
77869;BME280;67231;59.144;37.934;2023-03-29T14:19:18;99624.53;;;7.25;56.73
77869;BME280;67231;59.144;37.934;2023-03-29T14:21:48;99634.41;;;7.23;56.62
77869;BME280;67231;59.144;37.934;2023-03-29T14:24:21;99627.59;;;7.20;56.41
77869;BME280;67231;59.144;37.934;2023-03-29T14:26:51;99624.25;;;7.18;56.61
77869;BME280;67231;59.144;37.934;2023-03-29T14:29:18;99645.50;;;7.17;56.62
77869;BME280;67231;59.144;37.934;2023-03-29T14:31:45;99628.13;;;7.14;56.93
77869;BME280;67231;59.144;37.934;2023-03-29T14:34:16;99632.59;;;7.14;56.54
77869;BME280;67231;59.144;37.934;2023-03-29T14:36:45;99629.28;;;7.11;56.56
77869;BME280;67231;59.144;37.934;2023-03-29T14:39:15;99626.91;;;7.08;57.27
77869;BME280;67231;59.144;37.934;2023-03-29T14:41:48;99635.91;;;7.06;56.84
77869;BME280;67231;59.144;37.934;2023-03-29T14:44:17;99629.28;;;7.02;56.85
77869;BME280;67231;59.144;37.934;2023-03-29T14:46:45;99628.56;;;7.00;57.03
77869;BME280;67231;59.144;37.934;2023-03-29T14:49:16;99633.00;;;6.99;57.11
77869;BME280;67231;59.144;37.934;2023-03-29T14:51:43;99633.16;;;6.98;57.43
77869;BME280;67231;59.144;37.934;2023-03-29T14:54:31;99624.81;;;6.92;57.34
77869;BME280;67231;59.144;37.934;2023-03-29T14:57:02;99634.97;;;6.87;57.61
77869;BME280;67231;59.144;37.934;2023-03-29T14:59:37;99624.00;;;6.82;57.90
77869;BME280;67231;59.144;37.934;2023-03-29T15:02:21;99627.88;;;6.78;57.33
77869;BME280;67231;59.144;37.934;2023-03-29T15:05:04;99628.13;;;6.75;57.61
77869;BME280;67231;59.144;37.934;2023-03-29T15:07:32;99629.41;;;6.71;57.15
77869;BME280;67231;59.144;37.934;2023-03-29T15:10:01;99604.25;;;6.67;57.10
77869;BME280;67231;59.144;37.934;2023-03-29T15:12:31;99619.66;;;6.62;57.11
77869;BME280;67231;59.144;37.934;2023-03-29T15:14:58;99618.25;;;6.57;57.25
77869;BME280;67231;59.144;37.934;2023-03-29T15:17:35;99616.03;;;6.53;57.28
77869;BME280;67231;59.144;37.934;2023-03-29T15:22:58;99612.03;;;6.49;57.58
77869;BME280;67231;59.144;37.934;2023-03-29T15:25:38;99609.50;;;6.47;57.55
77869;BME280;67231;59.144;37.934;2023-03-29T15:30:58;99626.69;;;6.42;57.12
77869;BME280;67231;59.144;37.934;2023-03-29T15:36:01;99639.44;;;6.36;57.16
77869;BME280;67231;59.144;37.934;2023-03-29T15:38:29;99629.31;;;6.32;56.98
77869;BME280;67231;59.144;37.934;2023-03-29T15:40:55;99624.28;;;6.29;58.05
77869;BME280;67231;59.144;37.934;2023-03-29T15:43:22;99641.22;;;6.26;57.74
77869;BME280;67231;59.144;37.934;2023-03-29T15:45:48;99635.22;;;6.24;57.66